createdAt,value
2023-03-31T00:01:32.915Z,100140.47
2023-03-31T00:04:00.559Z,100142.34
2023-03-31T00:06:28.108Z,100138.00
2023-03-31T00:08:54.773Z,100126.16
2023-03-31T00:11:22.508Z,100116.19
2023-03-31T00:13:49.356Z,100114.28
2023-03-31T00:16:15.976Z,100130.47
2023-03-31T00:18:42.557Z,100124.19
2023-03-31T00:21:15.629Z,100118.91
2023-03-31T00:23:42.378Z,100108.75
2023-03-31T00:26:09.102Z,100104.03
2023-03-31T00:28:35.782Z,100105.59
2023-03-31T00:31:03.688Z,100109.19
2023-03-31T00:33:31.075Z,100082.47
2023-03-31T00:35:57.775Z,100078.56
2023-03-31T00:38:24.457Z,100084.38
2023-03-31T00:40:53.416Z,100090.47
2023-03-31T00:43:33.040Z,100090.25
2023-03-31T00:46:13.361Z,100093.28
2023-03-31T00:48:44.804Z,100091.88
2023-03-31T00:51:11.710Z,100085.19
2023-03-31T00:53:38.336Z,100086.28
2023-03-31T00:56:13.854Z,100071.94
2023-03-31T00:58:42.355Z,100086.72
2023-03-31T01:01:10.994Z,100080.63
2023-03-31T01:03:37.656Z,100074.50
2023-03-31T01:06:07.214Z,100078.84
2023-03-31T01:08:33.967Z,100073.56
2023-03-31T01:11:04.404Z,100075.41
2023-03-31T01:13:31.166Z,100072.06
2023-03-31T01:15:58.069Z,100065.75
2023-03-31T01:18:25.110Z,100073.66
2023-03-31T01:21:04.115Z,100068.63
2023-03-31T01:23:52.425Z,100074.06
2023-03-31T01:26:24.813Z,100059.13
2023-03-31T01:28:58.499Z,100059.13
2023-03-31T01:31:49.180Z,100056.03
2023-03-31T01:34:42.379Z,100040.00
2023-03-31T01:37:17.947Z,100043.50
2023-03-31T01:40:05.927Z,100036.31
2023-03-31T01:42:44.347Z,100040.97
2023-03-31T01:45:31.469Z,100033.22
2023-03-31T01:48:07.424Z,100040.06
2023-03-31T01:50:39.762Z,100036.19
2023-03-31T01:53:12.652Z,100036.19
2023-03-31T01:55:46.744Z,100030.69
2023-03-31T01:58:29.211Z,100022.94
2023-03-31T02:01:02.225Z,100023.44
2023-03-31T02:03:37.678Z,100022.06
2023-03-31T02:06:13.822Z,100038.59
2023-03-31T02:09:12.045Z,100033.97
2023-03-31T02:11:41.773Z,100035.28
2023-03-31T02:14:15.140Z,100045.25
2023-03-31T02:16:45.383Z,100038.31
2023-03-31T02:19:12.359Z,100028.88
2023-03-31T02:21:40.636Z,100019.25
2023-03-31T02:24:11.329Z,100020.38
2023-03-31T02:26:51.949Z,100025.09
2023-03-31T02:29:18.630Z,100023.97
2023-03-31T02:31:48.287Z,100023.44
2023-03-31T02:34:15.000Z,100027.31
2023-03-31T02:36:43.274Z,100033.66
2023-03-31T02:39:15.702Z,100032.31
2023-03-31T02:41:42.322Z,100027.69
2023-03-31T02:44:10.506Z,100032.09
2023-03-31T02:46:38.246Z,100019.41
2023-03-31T02:49:08.878Z,100050.88
2023-03-31T02:51:53.904Z,100047.84
2023-03-31T02:54:57.446Z,100026.84
2023-03-31T02:57:45.249Z,100046.78
2023-03-31T03:00:37.195Z,100048.72
2023-03-31T03:03:27.822Z,100058.47
2023-03-31T03:06:24.319Z,100061.53
2023-03-31T03:08:56.792Z,100037.50
2023-03-31T03:11:38.437Z,100060.41
2023-03-31T03:14:35.573Z,100068.44
2023-03-31T03:17:20.258Z,100056.56
2023-03-31T03:19:52.805Z,100061.34
2023-03-31T03:22:19.291Z,100077.84
2023-03-31T03:24:45.813Z,100069.91
2023-03-31T03:27:12.361Z,100070.16
2023-03-31T03:29:38.914Z,100064.69
2023-03-31T03:32:05.712Z,100071.84
2023-03-31T03:34:32.360Z,100067.97
2023-03-31T03:36:58.984Z,100070.72
2023-03-31T03:39:25.489Z,100076.19
2023-03-31T03:41:52.094Z,100065.69
2023-03-31T03:44:18.760Z,100067.91
2023-03-31T03:46:45.549Z,100075.94
2023-03-31T03:49:12.249Z,100064.16
2023-03-31T03:51:38.731Z,100074.16
2023-03-31T03:54:05.399Z,100066.19
2023-03-31T03:56:32.969Z,100063.25
2023-03-31T03:58:59.523Z,100066.59
2023-03-31T04:01:26.119Z,100062.25
2023-03-31T04:03:52.642Z,100063.44
2023-03-31T04:06:19.141Z,100065.13
2023-03-31T04:08:45.676Z,100060.75
2023-03-31T04:11:19.169Z,100063.00
2023-03-31T04:13:46.663Z,100061.31
2023-03-31T04:16:13.874Z,100055.78
2023-03-31T04:18:40.500Z,100061.84
2023-03-31T04:21:07.014Z,100056.41
2023-03-31T04:23:35.433Z,100054.25
2023-03-31T04:26:01.957Z,100055.06
2023-03-31T04:28:28.511Z,100041.59
2023-03-31T04:30:55.077Z,100047.69
2023-03-31T04:33:22.473Z,100028.41
2023-03-31T04:35:49.077Z,100026.72
2023-03-31T04:38:25.194Z,100029.00
2023-03-31T04:40:53.294Z,100025.13
2023-03-31T04:43:21.345Z,100034.44
2023-03-31T04:45:48.031Z,100040.50
2023-03-31T04:48:14.583Z,100044.25
2023-03-31T04:50:41.363Z,100034.53
2023-03-31T04:53:07.947Z,100031.72
2023-03-31T04:55:34.808Z,100034.94
2023-03-31T04:58:01.487Z,100042.91
2023-03-31T05:00:28.010Z,100047.81
2023-03-31T05:02:54.694Z,100043.94
2023-03-31T05:05:21.507Z,100051.53
2023-03-31T05:07:48.024Z,100050.41
2023-03-31T05:10:14.537Z,100056.75
2023-03-31T05:12:41.177Z,100054.25
2023-03-31T05:15:08.490Z,100048.56
2023-03-31T05:17:38.531Z,100048.78
2023-03-31T05:20:06.163Z,100052.53
2023-03-31T05:22:35.561Z,100049.19
2023-03-31T05:25:02.917Z,100043.56
2023-03-31T05:27:29.767Z,100048.53
2023-03-31T05:29:56.460Z,100044.03
2023-03-31T05:32:23.067Z,100047.94
2023-03-31T10:23:24.003Z,99944.06
2023-03-31T10:25:51.371Z,99937.97
2023-03-31T10:28:21.101Z,99933.72
2023-03-31T10:31:00.236Z,99931.69
2023-03-31T10:33:30.024Z,99917.97
2023-03-31T10:35:59.389Z,99916.16
2023-03-31T10:38:30.834Z,99909.84
2023-03-31T10:41:02.042Z,99904.50
2023-03-31T10:43:42.966Z,99910.94
2023-03-31T10:46:10.320Z,99899.31
2023-03-31T10:48:39.770Z,99899.69
2023-03-31T10:51:15.812Z,99900.69
2023-03-31T10:53:44.817Z,99899.31
2023-03-31T10:56:36.364Z,99885.78
2023-03-31T10:59:27.563Z,99876.22
2023-03-31T11:02:15.311Z,99879.63
2023-03-31T11:04:47.507Z,99874.66
2023-03-31T11:07:32.022Z,99861.69
2023-03-31T11:10:20.668Z,99860.34
2023-03-31T11:13:12.155Z,99859.22
2023-03-31T11:15:38.687Z,99851.97
2023-03-31T11:18:26.713Z,99866.75
2023-03-31T11:21:25.424Z,99852.88
2023-03-31T11:24:36.896Z,99851.81
2023-03-31T11:27:25.231Z,99841.41
2023-03-31T11:30:04.064Z,99834.50
2023-03-31T11:33:16.253Z,99825.09
2023-03-31T11:36:09.628Z,99810.09
2023-03-31T11:38:39.215Z,99801.50
2023-03-31T11:41:13.645Z,99794.94
2023-03-31T11:43:42.814Z,99780.31
2023-03-31T11:46:18.410Z,99789.28
2023-03-31T11:48:57.742Z,99776.31
2023-03-31T11:51:33.153Z,99773.28
2023-03-31T11:54:03.773Z,99776.00
2023-03-31T11:56:37.845Z,99763.38
2023-03-31T11:59:06.491Z,99762.69
2023-03-31T12:01:56.971Z,99763.00
2023-03-31T12:04:40.137Z,99751.34
2023-03-31T12:07:31.340Z,99752.19
2023-03-31T12:10:17.645Z,99751.06
2023-03-31T12:12:51.893Z,99742.84
2023-03-31T12:15:35.378Z,99745.44
2023-03-31T12:18:12.297Z,99750.88
2023-03-31T12:20:47.666Z,99747.81
2023-03-31T12:23:19.796Z,99751.53
2023-03-31T12:26:02.085Z,99746.66
2023-03-31T12:28:31.801Z,99748.44
2023-03-31T12:31:01.678Z,99732.75
2023-03-31T12:33:36.781Z,99737.09
2023-03-31T12:36:21.352Z,99725.50
2023-03-31T12:38:50.620Z,99724.47
2023-03-31T12:41:24.204Z,99719.63
2023-03-31T12:43:56.584Z,99710.72
2023-03-31T12:46:58.337Z,99715.50
2023-03-31T12:49:30.695Z,99713.59
2023-03-31T12:52:00.146Z,99708.91
2023-03-31T12:54:30.184Z,99697.31
2023-03-31T12:56:59.927Z,99692.25
2023-03-31T12:59:40.267Z,99701.25
2023-03-31T13:02:16.012Z,99682.50
2023-03-31T13:04:44.103Z,99678.91
2023-03-31T13:07:34.381Z,99679.69
2023-03-31T13:10:25.549Z,99672.28
2023-03-31T13:13:16.227Z,99676.22
2023-03-31T13:15:55.714Z,99660.75
2023-03-31T13:18:23.829Z,99657.69
2023-03-31T13:21:09.006Z,99651.63
2023-03-31T13:23:45.729Z,99646.63
2023-03-31T13:26:33.708Z,99644.41
2023-03-31T13:29:21.381Z,99639.53
2023-03-31T13:32:00.322Z,99633.34
2023-03-31T13:34:49.008Z,99624.47
2023-03-31T13:37:35.974Z,99614.91
2023-03-31T13:40:05.117Z,99612.53
2023-03-31T13:42:54.282Z,99607.44
2023-03-31T13:45:45.597Z,99596.59
2023-03-31T13:48:50.644Z,99588.41
2023-03-31T13:51:40.639Z,99575.22
2023-03-31T13:54:24.083Z,99578.78
2023-03-31T13:57:24.799Z,99579.16
2023-03-31T13:59:54.090Z,99574.56
2023-03-31T14:02:52.654Z,99556.13
2023-03-31T14:05:37.185Z,99564.84
2023-03-31T14:08:10.497Z,99555.59
2023-03-31T14:10:39.006Z,99553.34
2023-03-31T14:13:07.038Z,99545.78
2023-03-31T14:15:36.606Z,99539.97
2023-03-31T14:18:05.316Z,99538.06
2023-03-31T14:20:43.199Z,99529.81
2023-03-31T14:23:12.864Z,99535.56
2023-03-31T14:26:05.128Z,99527.38
2023-03-31T14:28:45.433Z,99522.06
2023-03-31T14:31:35.475Z,99512.03
2023-03-31T14:34:36.567Z,99522.34
2023-03-31T14:37:06.483Z,99515.75
2023-03-31T14:39:53.343Z,99503.66
2023-03-31T14:42:33.630Z,99503.34
2023-03-31T14:45:06.727Z,99508.53
2023-03-31T14:47:33.238Z,99512.88
2023-03-31T14:50:12.798Z,99510.94
2023-03-31T14:52:39.450Z,99505.97
2023-03-31T14:55:06.638Z,99504.19
2023-03-31T14:57:37.621Z,99500.75
2023-03-31T15:00:07.605Z,99501.84
2023-03-31T15:02:45.200Z,99498.53
2023-03-31T15:05:25.165Z,99499.84
2023-03-31T15:07:51.926Z,99491.97
2023-03-31T15:10:21.322Z,99498.59
2023-03-31T15:12:50.373Z,99492.69
2023-03-31T15:15:19.793Z,99477.31
2023-03-31T15:17:47.738Z,99480.56
2023-03-31T15:20:35.390Z,99479.09
2023-03-31T15:23:05.346Z,99471.94
2023-03-31T15:25:39.497Z,99467.16
2023-03-31T15:28:11.173Z,99468.84
2023-03-31T15:30:39.781Z,99464.94
2023-03-31T15:35:38.138Z,99459.41
2023-03-31T15:38:10.484Z,99455.09
2023-03-31T15:40:44.563Z,99446.72
2023-03-31T15:43:24.379Z,99443.50
2023-03-31T15:45:53.798Z,99439.34
2023-03-31T15:48:42.090Z,99448.41
2023-03-31T15:51:14.550Z,99442.75
2023-03-31T15:53:46.295Z,99449.84
2023-03-31T15:56:44.131Z,99443.34
2023-03-31T16:02:20.243Z,99429.78
2023-03-31T16:04:53.828Z,99424.47
2023-03-31T16:07:31.715Z,99413.09
2023-03-31T16:10:09.840Z,99408.84
2023-03-31T16:12:52.759Z,99399.88
2023-03-31T16:15:28.819Z,99396.75
2023-03-31T16:18:03.176Z,99387.63
2023-03-31T16:20:37.222Z,99379.78
2023-03-31T16:23:14.560Z,99382.59
2023-03-31T16:25:41.728Z,99382.44
2023-03-31T16:28:15.606Z,99384.69
2023-03-31T16:30:44.803Z,99381.56
2023-03-31T16:33:13.900Z,99378.88
2023-03-31T16:35:42.976Z,99381.75
2023-03-31T16:38:12.826Z,99375.50
2023-03-31T16:40:42.083Z,99374.78
2023-03-31T16:43:16.117Z,99370.50
2023-03-31T16:45:48.728Z,99364.03
2023-03-31T16:48:17.498Z,99361.59
2023-03-31T16:50:51.978Z,99360.69
2023-03-31T16:53:21.606Z,99358.31
2023-03-31T16:55:49.354Z,99359.66
2023-03-31T16:58:16.537Z,99356.53
2023-03-31T17:00:43.308Z,99353.53
2023-03-31T17:03:10.367Z,99352.84
2023-03-31T17:05:48.934Z,99342.06
2023-03-31T17:08:15.956Z,99343.59
2023-03-31T17:10:50.306Z,99341.63
2023-03-31T17:13:16.894Z,99331.44
2023-03-31T17:15:43.504Z,99334.34
2023-03-31T17:18:10.388Z,99345.50
2023-03-31T17:20:37.240Z,99336.59
2023-03-31T17:23:04.062Z,99328.03
2023-03-31T17:25:30.635Z,99334.41
2023-03-31T17:27:57.150Z,99336.72
2023-03-31T17:30:23.880Z,99328.69
2023-03-31T17:32:51.641Z,99327.91
2023-03-31T17:35:19.374Z,99325.44
2023-03-31T17:37:46.722Z,99332.06
2023-03-31T17:40:13.296Z,99334.50
2023-03-31T17:42:39.894Z,99327.41
2023-03-31T17:45:07.368Z,99335.78
2023-03-31T17:47:34.041Z,99317.94
2023-03-31T17:50:00.681Z,99314.31
2023-03-31T17:52:27.240Z,99308.41
2023-03-31T17:54:53.801Z,99303.53
2023-03-31T17:57:20.658Z,99309.81
2023-03-31T17:59:47.267Z,99307.25
2023-03-31T18:02:13.784Z,99300.28
2023-03-31T18:04:40.390Z,99303.06
2023-03-31T18:07:07.169Z,99302.50
2023-03-31T18:09:34.538Z,99300.41
2023-03-31T18:12:01.090Z,99300.06
2023-03-31T18:14:27.698Z,99296.34
2023-03-31T18:16:54.657Z,99298.69
2023-03-31T18:19:21.231Z,99303.56
2023-03-31T18:21:47.805Z,99290.19
2023-03-31T18:24:14.384Z,99292.16
2023-03-31T18:26:40.897Z,99296.13
2023-03-31T18:29:07.508Z,99291.13
2023-03-31T18:31:34.411Z,99284.75
2023-03-31T18:34:01.037Z,99283.03
2023-03-31T18:36:28.604Z,99282.50
2023-03-31T18:38:55.611Z,99277.63
2023-03-31T18:41:22.452Z,99267.53
2023-03-31T18:43:49.231Z,99269.03
2023-03-31T18:46:15.850Z,99274.94
2023-03-31T18:48:42.572Z,99274.13
2023-03-31T18:51:09.147Z,99276.56
2023-03-31T18:53:35.833Z,99268.91
2023-03-31T18:56:02.421Z,99259.41
2023-03-31T18:58:30.508Z,99263.38
2023-03-31T19:00:58.676Z,99251.06
2023-03-31T19:03:25.380Z,99242.63
2023-03-31T19:05:52.624Z,99246.69
2023-03-31T19:08:19.342Z,99258.25
2023-03-31T19:10:45.979Z,99259.66
2023-03-31T19:13:15.371Z,99276.81
2023-03-31T19:15:41.946Z,99282.50
2023-03-31T19:18:13.643Z,99289.09
2023-03-31T19:20:40.192Z,99303.31
2023-03-31T19:23:06.871Z,99296.72
2023-03-31T19:25:33.595Z,99318.81
2023-03-31T19:28:00.171Z,99313.66
2023-03-31T19:30:26.919Z,99305.28
2023-03-31T19:32:53.658Z,99312.56
2023-03-31T19:35:20.929Z,99308.38
2023-03-31T19:37:47.802Z,99307.09
2023-03-31T19:40:14.764Z,99316.78
2023-03-31T19:42:41.541Z,99328.72
2023-03-31T19:45:09.180Z,99321.44
2023-03-31T19:47:35.819Z,99306.94
2023-03-31T19:50:02.603Z,99312.69
2023-03-31T19:52:29.702Z,99314.19
2023-03-31T19:54:56.371Z,99302.59
2023-03-31T19:57:23.190Z,99304.31
2023-03-31T19:59:49.914Z,99299.09
2023-03-31T20:02:16.641Z,99295.81
2023-03-31T20:04:43.519Z,99285.88
2023-03-31T20:07:10.208Z,99282.41
2023-03-31T20:09:36.813Z,99282.91
2023-03-31T20:12:03.563Z,99279.31
2023-03-31T20:14:30.098Z,99290.53
2023-03-31T20:16:56.646Z,99279.75
2023-03-31T20:19:23.284Z,99270.13
2023-03-31T20:21:52.545Z,99259.19
2023-03-31T20:24:19.483Z,99262.75
2023-03-31T20:26:46.750Z,99258.13
2023-03-31T20:29:13.514Z,99255.03
2023-03-31T20:31:40.909Z,99259.09
2023-03-31T20:34:12.394Z,99255.63
2023-03-31T20:36:40.486Z,99245.31
2023-03-31T20:39:07.842Z,99253.78
2023-03-31T20:41:36.260Z,99257.03
2023-03-31T20:44:03.941Z,99262.91
2023-03-31T20:46:30.694Z,99250.50
2023-03-31T20:48:58.167Z,99259.31
2023-03-31T20:51:29.726Z,99251.47
2023-03-31T20:53:58.406Z,99254.56
2023-03-31T20:56:28.050Z,99249.72
2023-03-31T20:58:55.404Z,99247.72
2023-03-31T21:01:22.452Z,99248.09
2023-03-31T21:03:49.480Z,99241.25
2023-03-31T21:06:17.124Z,99254.47
2023-03-31T21:08:45.354Z,99247.63
2023-03-31T21:11:13.516Z,99245.41
2023-03-31T21:13:40.162Z,99244.94
2023-03-31T21:16:06.920Z,99241.91
2023-03-31T21:18:34.538Z,99243.25
2023-03-31T21:21:11.191Z,99241.38
2023-03-31T21:23:38.745Z,99244.38
2023-03-31T21:26:07.061Z,99239.34
2023-03-31T21:28:36.357Z,99242.47
2023-03-31T21:31:03.067Z,99239.22
2023-03-31T21:33:30.469Z,99229.97
2023-03-31T21:35:57.609Z,99238.38
2023-03-31T21:38:25.423Z,99232.66
2023-03-31T21:40:52.311Z,99243.16
2023-03-31T21:43:19.858Z,99227.81
2023-03-31T21:45:46.412Z,99230.47
2023-03-31T21:48:13.041Z,99212.41
2023-03-31T21:50:40.898Z,99219.25
2023-03-31T21:53:08.921Z,99219.91
2023-03-31T21:55:37.380Z,99217.94
2023-03-31T21:58:05.187Z,99225.78
2023-03-31T22:00:32.678Z,99221.03
2023-03-31T22:03:16.409Z,99213.75
2023-03-31T22:05:45.839Z,99211.16
2023-03-31T22:08:12.359Z,99206.91
2023-03-31T22:10:38.944Z,99204.66
2023-03-31T22:13:05.608Z,99205.34
2023-03-31T22:15:32.478Z,99192.69
2023-03-31T22:17:59.221Z,99199.53
2023-03-31T22:20:25.830Z,99198.38
2023-03-31T22:22:52.356Z,99193.97
2023-03-31T22:25:18.890Z,99205.75
2023-03-31T22:27:45.451Z,99199.03
2023-03-31T22:30:12.509Z,99196.25
2023-03-31T22:32:39.052Z,99192.34
2023-03-31T22:35:06.148Z,99190.72
2023-03-31T22:37:32.788Z,99183.19
2023-03-31T22:39:59.321Z,99174.88
2023-03-31T22:42:25.962Z,99184.69
2023-03-31T22:44:52.577Z,99181.47
2023-03-31T22:47:19.152Z,99185.16
2023-03-31T22:49:45.740Z,99176.22
2023-03-31T22:52:13.388Z,99185.66
2023-03-31T22:54:39.920Z,99186.31
2023-03-31T22:57:06.590Z,99179.28
2023-03-31T22:59:33.625Z,99172.09
2023-03-31T23:02:00.393Z,99175.44
2023-03-31T23:04:27.078Z,99176.91
2023-03-31T23:06:53.827Z,99171.72
2023-03-31T23:09:21.197Z,99180.72
2023-03-31T23:11:47.726Z,99167.16
2023-03-31T23:14:14.361Z,99160.00
2023-03-31T23:16:41.041Z,99162.44
2023-03-31T23:19:07.814Z,99161.13
2023-03-31T23:21:34.963Z,99167.47
2023-03-31T23:24:03.233Z,99159.84
2023-03-31T23:26:32.059Z,99161.81
2023-03-31T23:28:58.732Z,99154.97
2023-03-31T23:31:28.319Z,99152.38
2023-03-31T23:33:55.055Z,99147.63
2023-03-31T23:36:21.727Z,99153.63
2023-03-31T23:38:50.422Z,99157.41
2023-03-31T23:41:17.816Z,99151.25
2023-03-31T23:43:44.776Z,99154.69
2023-03-31T23:46:12.113Z,99153.94
2023-03-31T23:48:39.478Z,99150.22
2023-03-31T23:51:07.947Z,99153.84
2023-03-31T23:53:35.038Z,99150.13
2023-03-31T23:56:04.685Z,99147.84
2023-03-31T23:58:31.897Z,99155.34
